createdAt,value
2018-07-09T00:00:56.589Z,2.97
2018-07-09T00:03:24.432Z,2.60
2018-07-09T00:05:52.971Z,1.70
2018-07-09T00:08:20.827Z,2.20
2018-07-09T00:11:09.446Z,2.20
2018-07-09T00:13:37.992Z,2.10
2018-07-09T00:16:05.923Z,2.43
2018-07-09T00:18:33.756Z,2.10
2018-07-09T00:21:01.969Z,2.27
2018-07-09T00:23:29.820Z,2.30
2018-07-09T00:25:57.907Z,2.10
2018-07-09T00:28:26.052Z,2.07
2018-07-09T00:30:53.692Z,2.50
2018-07-09T00:33:21.931Z,2.50
2018-07-09T00:35:49.816Z,2.20
2018-07-09T00:38:18.179Z,1.97
2018-07-09T00:40:46.015Z,2.53
2018-07-09T00:43:13.650Z,2.50
2018-07-09T00:45:41.491Z,2.10
2018-07-09T00:48:09.518Z,2.70
2018-07-09T00:50:37.152Z,2.70
2018-07-09T00:53:04.951Z,2.37
2018-07-09T00:55:32.804Z,2.20
2018-07-09T00:58:00.611Z,2.00
2018-07-09T01:00:28.414Z,2.73
2018-07-09T01:02:56.223Z,2.00
2018-07-09T01:05:23.868Z,2.20
2018-07-09T01:07:51.566Z,2.03
2018-07-09T01:10:19.437Z,2.60
2018-07-09T01:12:47.222Z,2.10
2018-07-09T01:15:14.930Z,2.90
2018-07-09T01:17:42.573Z,2.60
2018-07-09T01:20:10.611Z,2.93
2018-07-09T01:22:38.395Z,3.13
2018-07-09T01:25:06.279Z,2.03
2018-07-09T01:27:34.121Z,2.80
2018-07-09T01:30:09.708Z,2.47
2018-07-09T01:32:38.011Z,2.43
2018-07-09T01:35:06.353Z,2.20
2018-07-09T01:37:34.384Z,2.80
2018-07-09T01:40:02.184Z,2.60
2018-07-09T01:42:29.981Z,2.80
2018-07-09T01:44:57.789Z,2.37
2018-07-09T01:47:25.580Z,2.30
2018-07-09T01:49:53.315Z,2.50
2018-07-09T01:52:21.107Z,2.87
2018-07-09T01:54:49.115Z,2.40
2018-07-09T01:57:16.894Z,2.60
2018-07-09T01:59:44.641Z,3.00
2018-07-09T02:02:12.444Z,2.70
2018-07-09T02:04:40.223Z,2.70
2018-07-09T02:07:08.035Z,2.07
2018-07-09T02:09:35.764Z,2.60
2018-07-09T02:12:03.611Z,2.57
2018-07-09T02:14:31.372Z,2.40
2018-07-09T02:16:59.164Z,2.20
2018-07-09T02:19:27.200Z,3.17
2018-07-09T02:21:54.952Z,2.50
2018-07-09T02:24:22.776Z,2.67
2018-07-09T02:26:50.616Z,2.40
2018-07-09T02:29:18.405Z,2.40
2018-07-09T02:31:46.047Z,2.43
2018-07-09T02:34:13.905Z,2.13
2018-07-09T02:36:41.729Z,2.90
2018-07-09T02:39:09.516Z,2.60
2018-07-09T02:41:37.268Z,2.83
2018-07-09T02:44:05.067Z,2.70
2018-07-09T02:46:32.884Z,3.30
2018-07-09T02:49:00.696Z,2.30
2018-07-09T02:51:28.414Z,2.70
2018-07-09T02:53:56.198Z,2.90
2018-07-09T02:56:23.964Z,3.40
2018-07-09T02:58:51.715Z,3.17
2018-07-09T03:01:19.541Z,3.60
2018-07-09T03:03:47.319Z,2.30
2018-07-09T03:06:15.105Z,3.23
2018-07-09T03:08:42.716Z,2.40
2018-07-09T03:11:10.500Z,2.90
2018-07-09T03:13:38.263Z,2.93
2018-07-09T03:16:06.116Z,2.70
2018-07-09T03:18:33.990Z,3.40
2018-07-09T03:21:01.848Z,2.40
2018-07-09T03:23:29.643Z,3.50
2018-07-09T03:25:57.428Z,2.83
2018-07-09T03:28:25.241Z,2.73
2018-07-09T03:30:53.043Z,2.77
2018-07-09T03:33:20.703Z,2.70
2018-07-09T03:35:48.359Z,2.53
2018-07-09T03:38:16.249Z,3.60
2018-07-09T03:40:44.072Z,3.03
2018-07-09T03:43:11.886Z,3.20
2018-07-09T03:45:39.660Z,3.53
2018-07-09T03:48:07.492Z,2.90
2018-07-09T03:50:35.323Z,2.40
2018-07-09T03:53:03.182Z,4.00
2018-07-09T03:55:30.992Z,2.80
2018-07-09T03:57:58.759Z,2.33
2018-07-09T04:00:26.436Z,2.90
2018-07-09T04:02:54.316Z,2.83
2018-07-09T04:05:22.190Z,2.93
2018-07-09T04:07:50.060Z,3.23
2018-07-09T04:10:17.927Z,3.10
2018-07-09T04:12:45.765Z,3.30
2018-07-09T04:15:13.431Z,3.23
2018-07-09T04:17:41.351Z,3.43
2018-07-09T04:20:09.215Z,3.00
2018-07-09T04:22:37.003Z,3.97
2018-07-09T04:25:04.847Z,3.50
2018-07-09T04:27:32.686Z,3.13
2018-07-09T04:30:00.542Z,3.70
2018-07-09T04:32:28.371Z,3.90
2018-07-09T04:34:56.184Z,3.73
2018-07-09T04:37:24.024Z,3.47
2018-07-09T04:39:51.880Z,3.50
2018-07-09T04:42:19.696Z,3.43
2018-07-09T04:44:47.512Z,4.53
2018-07-09T04:47:15.272Z,4.33
2018-07-09T04:49:42.942Z,4.50
2018-07-09T04:52:10.799Z,3.70
2018-07-09T04:54:38.635Z,3.63
2018-07-09T04:57:06.432Z,3.60
2018-07-09T04:59:34.188Z,3.70
2018-07-09T05:02:01.946Z,4.63
2018-07-09T05:04:29.743Z,5.60
2018-07-09T05:06:57.362Z,4.77
2018-07-09T05:09:25.149Z,3.90
2018-07-09T05:11:53.002Z,3.83
2018-07-09T05:14:20.753Z,4.00
2018-07-09T05:16:48.523Z,3.43
2018-07-09T05:19:16.316Z,4.33
2018-07-09T05:21:44.111Z,4.07
2018-07-09T05:24:11.879Z,3.50
2018-07-09T05:26:39.642Z,4.50
2018-07-09T05:29:07.476Z,3.40
2018-07-09T05:31:35.275Z,3.80
2018-07-09T05:34:18.124Z,4.20
2018-07-09T05:36:51.109Z,3.20
2018-07-09T05:39:27.327Z,4.23
2018-07-09T05:41:55.428Z,3.20
2018-07-09T05:44:23.360Z,3.33
2018-07-09T05:46:51.203Z,3.90
2018-07-09T05:49:19.741Z,3.80
2018-07-09T05:51:47.664Z,3.47
2018-07-09T05:54:15.313Z,2.87
2018-07-09T05:56:43.368Z,3.60
2018-07-09T05:59:11.275Z,4.10
2018-07-09T06:01:39.140Z,4.03
2018-07-09T06:04:06.807Z,4.00
2018-07-09T06:06:34.530Z,2.87
2018-07-09T06:09:02.871Z,3.80
2018-07-09T06:11:30.669Z,3.17
2018-07-09T06:13:58.427Z,3.70
2018-07-09T06:16:26.237Z,2.97
2018-07-09T06:18:54.088Z,2.67
2018-07-09T06:21:21.871Z,3.30
2018-07-09T06:23:49.667Z,3.20
2018-07-09T06:26:17.508Z,2.20
2018-07-09T06:28:45.321Z,3.00
2018-07-09T06:31:13.244Z,4.87
2018-07-09T06:33:41.363Z,2.63
2018-07-09T06:36:09.116Z,2.83
2018-07-09T06:38:36.891Z,2.97
2018-07-09T06:41:04.659Z,2.70
2018-07-09T06:43:32.457Z,3.60
2018-07-09T06:46:00.223Z,1.93
2018-07-09T06:48:27.941Z,2.83
2018-07-09T06:50:55.684Z,2.90
2018-07-09T06:53:23.278Z,2.13
2018-07-09T06:55:51.009Z,2.50
2018-07-09T06:58:18.759Z,2.83
2018-07-09T07:00:46.473Z,2.57
2018-07-09T07:03:14.169Z,2.20
2018-07-09T07:05:41.871Z,2.17
2018-07-09T07:08:09.611Z,2.80
2018-07-09T07:10:37.353Z,2.80
2018-07-09T07:13:05.203Z,3.27
2018-07-09T07:15:32.931Z,2.20
2018-07-09T07:18:01.024Z,2.47
2018-07-09T07:20:28.804Z,2.00
2018-07-09T07:22:56.559Z,3.03
2018-07-09T07:25:24.299Z,2.20
2018-07-09T07:27:52.252Z,2.33
2018-07-09T07:30:19.922Z,2.50
2018-07-09T07:32:47.754Z,2.27
2018-07-09T07:35:15.533Z,2.70
2018-07-09T07:37:43.296Z,2.80
2018-07-09T07:40:11.030Z,2.23
2018-07-09T07:42:38.811Z,2.50
2018-07-09T07:45:06.539Z,2.50
2018-07-09T07:47:34.251Z,1.60
2018-07-09T07:50:02.031Z,1.83
2018-07-09T07:52:29.811Z,1.97
2018-07-09T07:54:57.595Z,2.10
2018-07-09T07:57:25.412Z,2.03
2018-07-09T07:59:53.147Z,2.40
2018-07-09T08:02:20.937Z,1.73
2018-07-09T08:04:48.713Z,2.00
2018-07-09T08:07:16.552Z,2.23
2018-07-09T08:09:44.476Z,1.60
2018-07-09T08:13:00.543Z,1.60
2018-07-09T08:14:39.885Z,1.40
2018-07-09T08:17:07.660Z,1.93
2018-07-09T08:19:35.507Z,1.40
2018-07-09T08:22:03.134Z,1.50
2018-07-09T08:24:30.934Z,1.70
2018-07-09T08:26:58.691Z,1.87
2018-07-09T08:29:26.350Z,1.90
2018-07-09T08:31:54.267Z,2.00
2018-07-09T08:34:22.050Z,2.10
2018-07-09T08:36:49.835Z,2.20
2018-07-09T08:39:17.636Z,2.20
2018-07-09T08:41:45.472Z,1.80
2018-07-09T08:44:13.575Z,1.93
2018-07-09T08:46:41.343Z,1.33
2018-07-09T08:49:09.093Z,2.30
2018-07-09T08:51:36.888Z,2.17
2018-07-09T08:54:04.836Z,1.60
2018-07-09T08:56:32.641Z,1.93
2018-07-09T08:59:00.451Z,1.53
2018-07-09T09:01:28.303Z,1.67
2018-07-09T09:03:56.039Z,1.37
2018-07-09T09:06:23.894Z,1.60
2018-07-09T09:08:51.702Z,1.50
2018-07-09T09:11:19.686Z,2.30
2018-07-09T09:13:47.680Z,2.07
2018-07-09T09:16:15.760Z,1.73
2018-07-09T09:18:43.865Z,1.67
2018-07-09T09:21:11.974Z,1.50
2018-07-09T09:23:40.138Z,1.20
2018-07-09T09:26:08.279Z,1.70
2018-07-09T09:28:36.398Z,1.70
2018-07-09T09:31:04.631Z,1.83
2018-07-09T09:33:32.663Z,2.03
2018-07-09T09:36:00.394Z,1.90
2018-07-09T09:38:28.311Z,2.10
2018-07-09T09:40:56.219Z,2.10
2018-07-09T09:43:24.333Z,1.93
2018-07-09T09:45:52.252Z,1.80
2018-07-09T09:48:20.099Z,2.10
2018-07-09T09:50:47.898Z,1.83
2018-07-09T09:53:15.973Z,1.87
2018-07-09T09:55:43.979Z,1.90
2018-07-09T09:58:11.873Z,2.40
2018-07-09T10:00:45.655Z,1.70
2018-07-09T10:03:13.630Z,1.60
2018-07-09T10:05:41.726Z,1.20
2018-07-09T10:08:09.672Z,1.53
2018-07-09T10:10:37.705Z,1.80
2018-07-09T10:13:06.093Z,1.70
2018-07-09T10:15:34.056Z,1.90
2018-07-09T10:18:02.069Z,1.43
2018-07-09T10:20:30.082Z,1.60
2018-07-09T10:22:58.185Z,1.50
2018-07-09T10:25:26.297Z,1.90
2018-07-09T10:27:54.175Z,1.80
2018-07-09T10:30:22.121Z,1.43
2018-07-09T10:32:50.121Z,1.50
2018-07-09T10:35:18.089Z,2.40
2018-07-09T10:37:45.926Z,1.87
2018-07-09T10:40:13.885Z,1.83
2018-07-09T10:42:41.650Z,2.10
2018-07-09T10:45:09.516Z,1.90
2018-07-09T10:47:37.395Z,1.90
2018-07-09T10:50:05.325Z,2.30
2018-07-09T10:52:33.151Z,2.10
2018-07-09T10:55:00.930Z,2.13
2018-07-09T10:57:28.713Z,1.83
2018-07-09T10:59:56.381Z,1.70
2018-07-09T11:02:24.207Z,2.37
2018-07-09T11:04:51.975Z,1.73
2018-07-09T11:07:19.818Z,1.70
2018-07-09T11:09:47.719Z,1.93
2018-07-09T11:12:15.460Z,1.87
2018-07-09T11:14:43.212Z,1.70
2018-07-09T11:17:10.983Z,1.40
2018-07-09T11:19:38.743Z,1.93
2018-07-09T11:22:06.587Z,1.40
2018-07-09T11:24:34.228Z,1.70
2018-07-09T11:27:01.975Z,1.50
2018-07-09T11:29:30.132Z,1.80
2018-07-09T11:31:57.905Z,3.83
2018-07-09T11:34:25.693Z,1.70
2018-07-09T11:36:53.513Z,1.73
2018-07-09T11:39:21.312Z,1.80
2018-07-09T11:41:49.094Z,1.43
2018-07-09T11:44:17.117Z,2.30
2018-07-09T11:46:44.984Z,2.27
2018-07-09T11:49:12.959Z,2.37
2018-07-09T11:51:40.825Z,1.73
2018-07-09T11:54:08.634Z,1.67
2018-07-09T11:56:36.406Z,2.50
2018-07-09T11:59:04.209Z,2.30
2018-07-09T12:01:31.948Z,2.30
2018-07-09T12:03:59.741Z,1.70
2018-07-09T12:06:27.542Z,2.07
2018-07-09T12:08:55.427Z,1.80
2018-07-09T12:11:23.288Z,1.57
2018-07-09T12:13:51.157Z,1.83
2018-07-09T12:16:18.948Z,2.67
2018-07-09T12:18:46.736Z,1.50
2018-07-09T12:21:14.567Z,1.90
2018-07-09T12:23:42.222Z,1.60
2018-07-09T12:26:09.881Z,1.83
2018-07-09T12:28:37.539Z,2.27
2018-07-09T12:31:05.899Z,1.90
2018-07-09T12:33:33.758Z,1.57
2018-07-09T12:36:01.644Z,1.63
2018-07-09T12:38:29.524Z,2.03
2018-07-09T12:40:57.331Z,1.73
2018-07-09T12:43:25.152Z,2.07
2018-07-09T12:45:52.932Z,2.40
2018-07-09T12:48:20.711Z,2.07
2018-07-09T12:50:48.492Z,2.30
2018-07-09T12:53:16.293Z,3.00
2018-07-09T12:55:44.102Z,2.30
2018-07-09T12:58:11.967Z,2.60
2018-07-09T13:00:39.799Z,2.90
2018-07-09T13:03:07.705Z,2.67
2018-07-09T13:05:35.655Z,2.97
2018-07-09T13:08:03.523Z,2.57
2018-07-09T13:10:31.580Z,2.57
2018-07-09T13:12:59.363Z,3.27
2018-07-09T13:15:27.224Z,2.80
2018-07-09T13:17:54.851Z,2.37
2018-07-09T13:20:22.676Z,2.77
2018-07-09T13:22:50.563Z,3.40
2018-07-09T13:25:18.327Z,2.80
2018-07-09T13:27:46.115Z,3.20
2018-07-09T13:30:13.915Z,2.53
2018-07-09T13:32:41.587Z,3.13
2018-07-09T13:35:09.423Z,3.00
2018-07-09T13:37:37.233Z,3.47
2018-07-09T13:40:05.012Z,3.07
2018-07-09T13:42:32.891Z,2.53
2018-07-09T13:45:00.687Z,3.43
2018-07-09T13:47:28.591Z,2.70
2018-07-09T13:49:56.393Z,2.87
2018-07-09T13:52:24.309Z,2.83
2018-07-09T13:54:52.219Z,2.80
2018-07-09T13:57:20.043Z,3.30
2018-07-09T13:59:47.970Z,2.83
2018-07-09T14:02:15.748Z,2.70
2018-07-09T14:04:43.624Z,2.43
2018-07-09T14:07:11.410Z,2.53
2018-07-09T14:09:39.180Z,2.57
2018-07-09T14:12:07.149Z,2.67
2018-07-09T14:14:35.056Z,2.00
2018-07-09T14:17:02.968Z,2.13
2018-07-09T14:20:37.415Z,2.07
2018-07-09T14:23:06.143Z,2.20
2018-07-09T14:25:34.135Z,1.90
2018-07-09T14:28:02.103Z,1.53
2018-07-09T14:30:29.962Z,1.77
2018-07-09T14:32:57.948Z,1.80
2018-07-09T14:35:25.815Z,2.13
2018-07-09T14:37:53.631Z,2.00
2018-07-09T14:40:21.472Z,2.40
2018-07-09T14:42:49.328Z,1.90
2018-07-09T14:45:17.165Z,2.00
2018-07-09T14:47:44.904Z,1.80
2018-07-09T14:50:12.695Z,2.10
2018-07-09T14:52:40.543Z,1.97
2018-07-09T14:55:08.376Z,2.33
2018-07-09T14:57:36.261Z,2.40
2018-07-09T15:00:05.130Z,2.80
2018-07-09T15:02:33.025Z,3.17
2018-07-09T15:05:00.774Z,2.63
2018-07-09T15:07:29.220Z,2.63
2018-07-09T15:09:57.001Z,3.10
2018-07-09T15:12:24.826Z,2.47
2018-07-09T15:14:52.655Z,3.00
2018-07-09T15:17:21.483Z,2.70
2018-07-09T15:19:49.396Z,2.47
2018-07-09T15:22:17.261Z,3.10
2018-07-09T15:24:45.096Z,3.30
2018-07-09T15:27:12.889Z,3.37
2018-07-09T15:29:41.092Z,3.50
2018-07-09T15:32:15.039Z,2.70
2018-07-09T15:34:42.846Z,2.90
2018-07-09T15:37:10.731Z,3.73
2018-07-09T15:39:38.575Z,2.83
2018-07-09T15:42:06.419Z,3.53
2018-07-09T15:44:34.281Z,3.67
2018-07-09T15:47:02.145Z,3.93
2018-07-09T15:49:30.003Z,3.60
2018-07-09T15:51:57.865Z,3.20
2018-07-09T15:54:25.674Z,3.53
2018-07-09T15:56:53.475Z,3.30
2018-07-09T15:59:21.243Z,3.10
2018-07-09T16:01:49.027Z,2.87
2018-07-09T16:04:16.802Z,3.67
2018-07-09T16:06:44.629Z,3.77
2018-07-09T16:09:12.388Z,2.93
2018-07-09T16:11:40.160Z,3.00
2018-07-09T16:14:08.031Z,2.70
2018-07-09T16:16:36.011Z,3.77
2018-07-09T16:19:03.880Z,2.60
2018-07-09T16:21:31.727Z,3.30
2018-07-09T16:23:59.504Z,2.77
2018-07-09T16:26:27.339Z,2.40
2018-07-09T16:28:55.173Z,2.20
2018-07-09T16:31:22.947Z,2.07
2018-07-09T16:33:50.725Z,1.90
2018-07-09T16:36:18.614Z,2.27
2018-07-09T16:38:46.410Z,2.10
2018-07-09T16:41:14.248Z,1.70
2018-07-09T16:43:42.092Z,2.00
2018-07-09T16:46:09.850Z,2.83
2018-07-09T16:48:37.651Z,4.73
2018-07-09T16:51:05.464Z,1.77
2018-07-09T16:53:33.232Z,1.93
2018-07-09T16:56:01.012Z,1.50
2018-07-09T16:58:28.877Z,1.53
2018-07-09T17:00:56.579Z,1.80
2018-07-09T17:03:24.335Z,1.93
2018-07-09T17:05:52.967Z,1.50
2018-07-09T17:08:20.754Z,1.60
2018-07-09T17:10:48.520Z,1.40
2018-07-09T17:13:16.293Z,1.87
2018-07-09T17:15:44.075Z,1.40
2018-07-09T17:18:11.823Z,3.43
2018-07-09T17:20:39.618Z,1.20
2018-07-09T17:23:07.404Z,1.70
2018-07-09T17:25:35.993Z,1.60
2018-07-09T17:28:03.715Z,1.30
2018-07-09T17:30:31.322Z,1.83
2018-07-09T17:32:59.047Z,3.63
2018-07-09T17:35:26.803Z,1.23
2018-07-09T17:37:54.429Z,1.40
2018-07-09T17:40:22.155Z,2.00
2018-07-09T17:42:49.904Z,1.73
2018-07-09T17:45:17.642Z,1.83
2018-07-09T17:47:45.411Z,1.70
2018-07-09T17:50:13.156Z,1.70
2018-07-09T17:52:40.883Z,3.10
2018-07-09T17:55:08.611Z,1.97
2018-07-09T17:57:36.384Z,1.40
2018-07-09T18:00:04.634Z,1.80
2018-07-09T18:02:32.378Z,1.90
2018-07-09T18:05:00.299Z,2.00
2018-07-09T18:07:28.142Z,2.03
2018-07-09T18:09:56.167Z,1.70
2018-07-09T18:12:23.877Z,1.77
2018-07-09T18:14:51.617Z,1.80
2018-07-09T18:17:19.319Z,1.60
2018-07-09T18:19:47.113Z,5.17
2018-07-09T18:22:14.663Z,2.37
2018-07-09T18:24:42.408Z,1.33
2018-07-09T18:27:10.119Z,1.77
2018-07-09T18:29:37.819Z,1.80
2018-07-09T18:32:05.550Z,1.90
2018-07-09T18:34:33.266Z,1.70
2018-07-09T18:37:01.052Z,1.73
2018-07-09T18:39:29.651Z,1.30
2018-07-09T18:41:57.394Z,1.63
2018-07-09T18:44:25.083Z,1.90
2018-07-09T18:46:52.806Z,1.80
2018-07-09T18:49:20.396Z,1.23
2018-07-09T18:51:48.111Z,1.67
2018-07-09T18:54:15.830Z,1.83
2018-07-09T18:56:43.611Z,2.13
2018-07-09T18:59:11.307Z,1.50
2018-07-09T19:01:39.015Z,2.17
2018-07-09T19:04:06.792Z,1.80
2018-07-09T19:06:46.675Z,1.73
2018-07-09T19:09:14.410Z,1.97
2018-07-09T19:11:42.206Z,2.13
2018-07-09T19:14:11.159Z,2.37
2018-07-09T19:16:50.167Z,2.67
2018-07-09T19:19:29.258Z,1.80
2018-07-09T19:22:00.311Z,2.20
2018-07-09T19:24:27.163Z,3.23
2018-07-09T19:26:54.355Z,2.23
2018-07-09T19:29:20.903Z,2.17
2018-07-09T19:31:47.492Z,2.63
2018-07-09T19:34:14.047Z,2.50
2018-07-09T19:36:40.674Z,2.40
2018-07-09T19:39:08.039Z,2.40
2018-07-09T19:41:34.672Z,2.33
2018-07-09T19:44:01.201Z,2.60
2018-07-09T19:46:27.735Z,2.97
2018-07-09T19:48:55.023Z,2.07
2018-07-09T19:51:21.864Z,2.07
2018-07-09T19:53:48.419Z,2.73
2018-07-09T19:56:15.006Z,2.70
2018-07-09T19:58:41.686Z,2.50
2018-07-09T20:01:08.273Z,3.03
2018-07-09T20:03:34.831Z,2.20
2018-07-09T20:06:01.408Z,2.27
2018-07-09T20:08:33.558Z,2.33
2018-07-09T20:12:05.699Z,2.70
2018-07-09T20:14:38.086Z,2.17
2018-07-09T20:17:12.252Z,2.43
2018-07-09T20:19:38.811Z,2.27
2018-07-09T20:22:05.403Z,2.63
2018-07-09T20:24:31.963Z,2.37
2018-07-09T20:26:58.539Z,2.50
2018-07-09T20:29:25.109Z,2.60
2018-07-09T20:31:51.691Z,2.70
2018-07-09T20:34:18.255Z,2.60
2018-07-09T20:36:44.823Z,2.93
2018-07-09T20:39:11.404Z,4.10
2018-07-09T20:41:37.974Z,5.57
2018-07-09T20:44:04.542Z,3.60
2018-07-09T20:46:31.324Z,3.53
2018-07-09T20:48:58.175Z,4.17
2018-07-09T20:51:24.823Z,3.93
2018-07-09T20:53:51.416Z,4.47
2018-07-09T20:56:18.180Z,3.63
2018-07-09T20:58:45.230Z,3.10
2018-07-09T21:01:11.847Z,3.67
2018-07-09T21:03:38.427Z,3.40
2018-07-09T21:06:05.044Z,3.20
2018-07-09T21:08:32.072Z,3.80
2018-07-09T21:10:58.667Z,5.30
2018-07-09T21:13:29.775Z,3.47
2018-07-09T21:15:56.433Z,3.07
2018-07-09T21:18:22.927Z,3.57
2018-07-09T21:20:49.979Z,3.73
2018-07-09T21:23:16.554Z,3.97
2018-07-09T21:25:43.123Z,3.00
2018-07-09T21:28:09.719Z,3.10
2018-07-09T21:30:36.279Z,3.30
2018-07-09T21:33:02.855Z,3.47
2018-07-09T21:35:29.408Z,3.53
2018-07-09T21:37:56.628Z,3.70
2018-07-09T21:40:23.054Z,4.20
2018-07-09T21:42:49.651Z,3.50
2018-07-09T21:45:16.258Z,4.70
2018-07-09T21:47:42.874Z,4.63
2018-07-09T21:50:09.644Z,4.27
2018-07-09T21:52:36.705Z,3.80
2018-07-09T21:55:04.099Z,4.47
2018-07-09T21:57:30.874Z,4.87
2018-07-09T21:59:57.578Z,3.23
2018-07-09T22:02:24.330Z,3.97
2018-07-09T22:04:51.018Z,3.53
2018-07-09T22:07:17.693Z,4.30
2018-07-09T22:09:45.630Z,3.87
2018-07-09T22:12:12.663Z,3.30
2018-07-09T22:14:39.359Z,2.83
2018-07-09T22:17:06.559Z,3.17
2018-07-09T22:19:33.266Z,3.20
2018-07-09T22:22:00.051Z,3.30
2018-07-09T22:24:26.767Z,2.87
2018-07-09T22:26:53.564Z,2.67
2018-07-09T22:29:20.179Z,2.67
2018-07-09T22:31:48.266Z,3.20
2018-07-09T22:34:16.193Z,3.10
2018-07-09T22:36:44.363Z,2.80
2018-07-09T22:39:12.089Z,2.83
2018-07-09T22:41:39.923Z,2.83
2018-07-09T22:44:14.504Z,3.37
2018-07-09T22:46:42.596Z,3.10
2018-07-09T22:49:10.891Z,2.33
2018-07-09T22:51:38.839Z,2.47
2018-07-09T22:54:06.735Z,1.43
2018-07-09T22:56:34.637Z,2.10
2018-07-09T22:59:02.491Z,1.60
2018-07-09T23:01:30.499Z,2.00
2018-07-09T23:03:58.199Z,1.27
2018-07-09T23:06:26.095Z,1.07
2018-07-09T23:08:58.411Z,1.47
2018-07-09T23:12:39.684Z,1.40
2018-07-09T23:15:28.800Z,1.33
2018-07-09T23:18:08.128Z,1.60
2018-07-09T23:20:49.507Z,1.67
2018-07-09T23:23:16.092Z,1.80
2018-07-09T23:25:42.703Z,1.53
2018-07-09T23:28:09.317Z,1.60
2018-07-09T23:30:36.072Z,1.57
2018-07-09T23:33:02.847Z,1.80
2018-07-09T23:35:29.424Z,1.47
2018-07-09T23:37:55.992Z,1.70
2018-07-09T23:40:22.659Z,2.37
2018-07-09T23:42:49.227Z,1.90
2018-07-09T23:45:16.335Z,1.70
2018-07-09T23:47:43.103Z,1.67
2018-07-09T23:50:09.667Z,2.00
2018-07-09T23:52:36.301Z,2.03
2018-07-09T23:55:02.973Z,1.90
2018-07-09T23:58:18.438Z,1.60
